Time;durP1;ratioP1;P1;durP2;ratioP2;P2;SDS_P1;SDS_P2;PMS_P1;PMS_P2;Temp;Humidity;BMP_temperature;BMP_pressure;BME280_temperature;BME280_humidity;BME280_pressure;Samples;Min_cycle;Max_cycle;Signal;HPM_P1;HPM_P2
2021/09/05 00:00:28;;;;;;;11.25;9.95;;;;;;;9.45;100.00;93267.53;2051919;28;20027;-88
2021/09/05 00:01:29;;;;;;;11.65;9.88;;;;;;;9.46;100.00;93269.03;2056038;28;20033;-89
2021/09/05 00:02:30;;;;;;;12.98;10.68;;;;;;;9.39;100.00;93268.38;2051634;28;20130;-89
2021/09/05 00:03:31;;;;;;;11.07;9.85;;;;;;;9.36;100.00;93271.88;2057817;28;20222;-91
2021/09/05 00:04:32;;;;;;;12.38;10.38;;;;;;;9.42;100.00;93264.91;2057653;28;20117;-90
2021/09/05 00:05:33;;;;;;;11.82;10.50;;;;;;;9.43;100.00;93269.81;2057845;28;20045;-90
2021/09/05 00:06:34;;;;;;;11.43;9.82;;;;;;;9.40;100.00;93265.31;2050046;28;20028;-88
2021/09/05 00:07:35;;;;;;;12.27;10.82;;;;;;;9.46;100.00;93262.94;2064533;28;20114;-90
2021/09/05 00:08:36;;;;;;;13.90;10.63;;;;;;;9.47;100.00;93264.44;2049865;28;20033;-90
2021/09/05 00:09:37;;;;;;;14.90;11.05;;;;;;;9.43;100.00;93259.16;2053013;28;20062;-91
2021/09/05 00:10:38;;;;;;;11.85;10.65;;;;;;;9.36;100.00;93261.19;2045386;28;20026;-89
2021/09/05 00:11:39;;;;;;;13.15;11.40;;;;;;;9.27;100.00;93256.38;2049967;28;20054;-89
2021/09/05 00:12:42;;;;;;;12.70;10.57;;;;;;;9.28;100.00;93266.63;2049943;28;20058;-89
2021/09/05 00:13:43;;;;;;;12.02;10.75;;;;;;;9.31;100.00;93260.50;2054224;28;20371;-89
2021/09/05 00:14:44;;;;;;;13.30;11.43;;;;;;;9.37;100.00;93262.69;2057966;28;20050;-91
2021/09/05 00:15:45;;;;;;;12.60;11.30;;;;;;;9.34;100.00;93259.66;2054128;28;20023;-89
2021/09/05 00:16:46;;;;;;;13.38;11.10;;;;;;;9.32;100.00;93264.66;2058010;28;20416;-90
2021/09/05 00:17:47;;;;;;;13.25;10.95;;;;;;;9.31;100.00;93265.06;2057959;28;20022;-92
2021/09/05 00:18:47;;;;;;;13.02;11.70;;;;;;;9.33;100.00;93263.50;2045152;29;20028;-89
2021/09/05 00:19:48;;;;;;;14.70;12.15;;;;;;;9.34;100.00;93266.91;2059425;28;20027;-90
2021/09/05 00:20:49;;;;;;;12.77;10.80;;;;;;;9.29;100.00;93267.38;2052713;28;20024;-91
2021/09/05 00:21:50;;;;;;;13.05;11.50;;;;;;;9.29;100.00;93260.13;2042048;29;20027;-88
2021/09/05 00:22:51;;;;;;;13.25;11.20;;;;;;;9.31;100.00;93255.16;2050030;28;20105;-91
2021/09/05 00:23:52;;;;;;;13.02;11.30;;;;;;;9.21;100.00;93260.63;2063058;28;20073;-91
2021/09/05 00:24:53;;;;;;;14.85;12.07;;;;;;;9.22;100.00;93260.25;2060480;28;20030;-89
2021/09/05 00:25:54;;;;;;;12.90;10.93;;;;;;;9.20;100.00;93261.78;2047344;29;20034;-89
2021/09/05 00:26:55;;;;;;;18.88;11.57;;;;;;;9.20;100.00;93261.78;2052301;28;20412;-90
2021/09/05 00:27:57;;;;;;;13.60;12.10;;;;;;;9.17;100.00;93262.59;2049834;29;20114;-90
2021/09/05 00:28:59;;;;;;;14.23;11.25;;;;;;;9.24;100.00;93262.50;2048301;28;20031;-90
2021/09/05 00:30:00;;;;;;;12.35;11.05;;;;;;;9.21;100.00;93255.28;2051741;28;20027;-91
2021/09/05 00:31:01;;;;;;;12.63;11.43;;;;;;;9.27;100.00;93257.13;2056082;28;20027;-89
2021/09/05 00:32:02;;;;;;;14.02;11.48;;;;;;;9.22;100.00;93259.47;2057902;28;20034;-90
2021/09/05 00:33:07;;;;;;;12.50;11.20;;;;;;;9.23;100.00;93255.66;2063058;28;20040;-92
2021/09/05 00:34:08;;;;;;;11.73;10.52;;;;;;;9.23;100.00;93259.06;2061593;28;20419;-90
2021/09/05 00:35:09;;;;;;;12.90;11.10;;;;;;;9.19;100.00;93253.03;2053413;28;20031;-90
2021/09/05 00:36:10;;;;;;;15.68;12.10;;;;;;;9.18;100.00;93256.88;2045418;29;20075;-89
2021/09/05 00:37:11;;;;;;;14.57;11.35;;;;;;;9.15;100.00;93251.59;2041889;29;20031;-90
2021/09/05 00:38:12;;;;;;;12.52;11.23;;;;;;;9.19;100.00;93255.72;2041622;29;20023;-92
2021/09/05 00:39:13;;;;;;;13.05;10.35;;;;;;;9.14;100.00;93250.06;2049484;29;20086;-92
2021/09/05 00:40:14;;;;;;;13.38;10.98;;;;;;;9.16;100.00;93255.75;2049754;29;20051;-93
2021/09/05 00:41:15;;;;;;;15.40;11.68;;;;;;;9.16;100.00;93261.84;2049461;28;20019;-92
2021/09/05 00:42:23;;;;;;;13.15;10.90;;;;;;;9.14;100.00;93255.41;2049438;29;20020;-90
2021/09/05 00:43:24;;;;;;;17.48;11.93;;;;;;;9.11;100.00;93262.28;2042577;29;20027;-90
2021/09/05 00:44:25;;;;;;;12.77;11.48;;;;;;;9.12;100.00;93258.47;2041788;29;20050;-94
2021/09/05 00:45:26;;;;;;;13.68;11.27;;;;;;;9.11;100.00;93254.28;2051180;28;20027;-89
2021/09/05 00:46:27;;;;;;;13.95;10.85;;;;;;;9.16;100.00;93253.84;2051410;28;20090;-91
2021/09/05 00:47:28;;;;;;;17.20;11.05;;;;;;;9.17;100.00;93258.00;2048965;28;20019;-91
2021/09/05 00:48:29;;;;;;;13.48;10.43;;;;;;;9.17;100.00;93258.00;2063658;28;20054;-90
2021/09/05 00:49:30;;;;;;;12.02;10.80;;;;;;;9.13;100.00;93256.53;2049458;29;20023;-90
2021/09/05 00:50:32;;;;;;;12.43;10.80;;;;;;;9.06;100.00;93254.75;2051146;28;20038;-89
2021/09/05 00:51:42;;;;;;;12.65;10.65;;;;;;;9.06;100.00;93250.16;2056181;28;20031;-91
2021/09/05 00:52:44;;;;;;;11.52;10.32;;;;;;;9.10;100.00;93257.38;2050874;28;20053;-91
2021/09/05 00:53:45;;;;;;;15.80;12.52;;;;;;;9.03;100.00;93258.97;2057455;28;20593;-90
2021/09/05 00:54:47;;;;;;;11.32;10.18;;;;;;;9.03;100.00;93253.63;2057733;28;20023;-88
2021/09/05 00:55:48;;;;;;;11.27;10.18;;;;;;;9.02;100.00;93254.03;2053159;28;20480;-88
2021/09/05 00:56:49;;;;;;;12.18;10.55;;;;;;;8.99;100.00;93254.84;2049500;28;20031;-91
2021/09/05 00:57:51;;;;;;;11.25;9.90;;;;;;;8.98;100.00;93256.75;2049926;28;20067;-89
2021/09/05 00:58:54;;;;;;;13.23;10.95;;;;;;;8.98;100.00;93253.34;2049702;28;20038;-89
2021/09/05 00:59:55;;;;;;;11.30;10.10;;;;;;;8.96;100.00;93253.75;2052737;28;20563;-88
2021/09/05 01:00:58;;;;;;;12.07;10.73;;;;;;;8.94;100.00;93260.63;2065999;28;20027;-87
2021/09/05 01:01:59;;;;;;;13.18;10.10;;;;;;;8.99;100.00;93257.50;2051937;28;20131;-89
2021/09/05 01:03:00;;;;;;;11.60;10.32;;;;;;;9.03;100.00;93250.22;2055480;28;20026;-89
2021/09/05 01:04:01;;;;;;;10.77;9.68;;;;;;;9.00;100.00;93253.66;2059429;28;20122;-90
2021/09/05 01:05:02;;;;;;;13.15;10.52;;;;;;;9.02;100.00;93254.03;2057665;28;20495;-90
2021/09/05 01:06:03;;;;;;;12.60;9.40;;;;;;;9.02;100.00;93254.78;2049553;28;20454;-89
2021/09/05 01:07:04;;;;;;;11.23;9.95;;;;;;;9.02;100.00;93256.72;2049298;28;20046;-90
2021/09/05 01:08:05;;;;;;;10.90;9.70;;;;;;;8.96;100.00;93258.31;2049986;28;20038;-91
2021/09/05 01:09:07;;;;;;;12.82;10.57;;;;;;;8.97;100.00;93257.91;2060213;28;20054;-90
2021/09/05 01:10:12;;;;;;;11.98;10.18;;;;;;;8.96;100.00;93253.00;2057291;28;20026;-88
2021/09/05 01:11:12;;;;;;;13.55;10.70;;;;;;;8.91;100.00;93261.41;2046507;28;20028;-87
2021/09/05 01:12:13;;;;;;;11.65;9.88;;;;;;;8.92;100.00;93261.03;2041470;29;20023;-91
2021/09/05 01:13:14;;;;;;;12.70;10.05;;;;;;;8.96;100.00;93253.00;2049428;29;20457;-90
2021/09/05 01:14:16;;;;;;;11.77;10.15;;;;;;;8.88;100.00;93264.91;2053156;28;20113;-89
2021/09/05 01:15:17;;;;;;;12.00;10.70;;;;;;;8.80;100.00;93269.56;2057527;28;20039;-92
2021/09/05 01:16:26;;;;;;;12.80;10.48;;;;;;;8.85;100.00;93263.03;2057271;28;20022;-92
2021/09/05 01:17:27;;;;;;;13.50;10.23;;;;;;;8.91;100.00;93258.75;2057422;28;20488;-89
2021/09/05 01:18:28;;;;;;;11.35;10.15;;;;;;;8.87;100.00;93266.03;2055221;28;20046;-88
2021/09/05 01:19:29;;;;;;;11.35;9.60;;;;;;;8.89;100.00;93266.41;2065234;28;20026;-91
2021/09/05 01:20:30;;;;;;;11.57;10.40;;;;;;;8.89;100.00;93271.72;2061544;28;20057;-88
2021/09/05 01:21:32;;;;;;;15.70;10.70;;;;;;;8.87;100.00;93266.81;2051436;28;20038;-90
2021/09/05 01:22:33;;;;;;;11.85;10.63;;;;;;;8.92;100.00;93263.69;2042639;28;20023;-91
2021/09/05 01:23:34;;;;;;;10.95;9.82;;;;;;;8.91;100.00;93266.75;2049513;28;20115;-91
2021/09/05 01:24:35;;;;;;;12.88;10.30;;;;;;;8.93;100.00;93267.88;2054648;28;20037;-91
2021/09/05 01:25:36;;;;;;;11.75;10.32;;;;;;;8.87;100.00;93271.38;2054277;28;20027;-92
2021/09/05 01:26:39;;;;;;;10.98;9.88;;;;;;;8.83;100.00;93260.78;2055162;28;20042;-90
2021/09/05 01:27:40;;;;;;;11.20;10.02;;;;;;;8.90;100.00;93270.56;2050307;28;20106;-90
2021/09/05 01:28:41;;;;;;;12.18;10.13;;;;;;;8.83;100.00;93274.84;2053085;28;20023;-91
2021/09/05 01:29:42;;;;;;;13.07;10.77;;;;;;;8.81;100.00;93271.81;2049511;28;20085;-91
2021/09/05 01:30:43;;;;;;;14.32;10.00;;;;;;;8.84;100.00;93275.59;2049242;29;20074;-90
2021/09/05 01:31:50;;;;;;;13.00;10.25;;;;;;;8.84;100.00;93272.94;2061074;28;20165;-90
2021/09/05 01:32:51;;;;;;;15.18;10.77;;;;;;;8.80;100.00;93272.22;2058027;28;20034;-91
2021/09/05 01:33:52;;;;;;;11.30;9.88;;;;;;;8.87;100.00;93272.16;2054459;28;20109;-90
2021/09/05 01:34:53;;;;;;;11.15;9.63;;;;;;;8.79;100.00;93278.72;2057428;28;20054;-90
2021/09/05 01:35:54;;;;;;;15.13;11.02;;;;;;;8.75;100.00;93278.75;2065560;28;20465;-90
2021/09/05 01:36:54;;;;;;;17.58;10.38;;;;;;;8.74;100.00;93279.16;2051792;28;20026;-91
2021/09/05 01:37:55;;;;;;;10.90;9.77;;;;;;;8.79;100.00;93282.13;2046798;28;20054;-92
2021/09/05 01:38:56;;;;;;;12.30;9.63;;;;;;;8.78;100.00;93282.50;2057318;28;20349;-91
2021/09/05 01:39:58;;;;;;;12.38;10.07;;;;;;;8.74;100.00;93279.16;2051626;28;20031;-91
2021/09/05 01:40:59;;;;;;;10.85;9.50;;;;;;;8.70;100.00;93283.78;2041958;29;20039;-90
2021/09/05 01:42:00;;;;;;;11.13;9.90;;;;;;;8.76;100.00;93276.84;2041242;29;20053;-88
2021/09/05 01:43:01;;;;;;;12.43;10.05;;;;;;;8.81;100.00;93289.72;2054842;28;20034;-90
2021/09/05 01:44:08;;;;;;;13.48;11.00;;;;;;;8.75;100.00;93284.09;2050705;28;20461;-91
2021/09/05 01:45:09;;;;;;;11.23;9.57;;;;;;;8.75;100.00;93278.75;2049813;28;20073;-90
2021/09/05 01:46:10;;;;;;;12.23;10.13;;;;;;;8.78;100.00;93285.19;2051700;28;20468;-90
2021/09/05 01:47:11;;;;;;;13.90;10.45;;;;;;;8.73;100.00;93283.72;2053078;28;20031;-90
2021/09/05 01:48:12;;;;;;;14.45;10.18;;;;;;;8.77;100.00;93281.75;2048469;28;20016;-88
2021/09/05 01:49:13;;;;;;;12.27;10.75;;;;;;;8.70;100.00;93276.53;2048826;29;20038;-89
2021/09/05 01:50:14;;;;;;;11.43;10.05;;;;;;;8.70;100.00;93289.84;2052707;28;20022;-90
2021/09/05 01:51:15;;;;;;;11.95;9.98;;;;;;;8.64;100.00;93288.78;2057143;28;20027;-89
2021/09/05 01:52:16;;;;;;;12.15;9.40;;;;;;;8.64;100.00;93290.69;2048920;28;20027;-89
2021/09/05 01:53:17;;;;;;;14.13;10.23;;;;;;;8.69;100.00;93295.56;2048343;29;20031;-90
2021/09/05 01:54:18;;;;;;;12.32;9.93;;;;;;;8.71;100.00;93288.69;2049078;29;20053;-91
2021/09/05 01:55:18;;;;;;;14.85;10.95;;;;;;;8.73;100.00;93296.28;2061167;28;20018;-88
2021/09/05 01:56:19;;;;;;;11.52;9.70;;;;;;;8.65;100.00;93295.63;2044285;29;20031;-92
2021/09/05 01:57:20;;;;;;;13.05;10.23;;;;;;;8.65;100.00;93289.53;2045641;28;20045;-90
2021/09/05 01:58:23;;;;;;;14.82;10.05;;;;;;;8.73;100.00;93288.28;2048536;28;20035;-90
2021/09/05 01:59:24;;;;;;;11.75;9.93;;;;;;;8.75;100.00;93296.66;2052150;28;20055;-91
2021/09/05 02:00:25;;;;;;;12.32;10.50;;;;;;;8.74;100.00;93292.47;2053805;28;20034;-89
2021/09/05 02:01:31;;;;;;;13.00;10.35;;;;;;;8.75;100.00;93291.31;2048723;28;20055;-91
2021/09/05 02:02:32;;;;;;;11.20;10.00;;;;;;;8.75;100.00;93286.00;2057159;28;20074;-91
2021/09/05 02:03:32;;;;;;;13.68;10.88;;;;;;;8.72;100.00;93295.53;2058343;28;20121;-90
2021/09/05 02:04:33;;;;;;;12.00;10.40;;;;;;;8.70;100.00;93297.09;2056821;28;20030;-90
2021/09/05 02:07:13;;;;;;;;;;;;;;;8.69;100.00;93291.03;2148949;27;20172;-86
2021/09/05 02:08:14;;;;;;;10.88;9.73;;;;;;;8.71;100.00;93288.69;2138168;27;19967;-88
2021/09/05 02:09:15;;;;;;;13.80;10.95;;;;;;;8.63;100.00;93284.59;2130609;27;20026;-87
2021/09/05 02:10:16;;;;;;;12.85;10.15;;;;;;;8.65;100.00;93289.53;2121894;28;20503;-85
2021/09/05 02:11:17;;;;;;;12.68;9.93;;;;;;;8.60;100.00;93290.72;2105066;28;20051;-86
2021/09/05 02:12:18;;;;;;;11.05;9.82;;;;;;;8.60;100.00;93295.28;2104802;28;20032;-84
2021/09/05 02:13:19;;;;;;;11.70;10.50;;;;;;;8.63;100.00;93292.59;2113408;28;20054;-88
2021/09/05 02:14:20;;;;;;;16.13;11.30;;;;;;;8.63;100.00;93295.25;2122050;27;20011;-86
2021/09/05 02:15:21;;;;;;;14.40;10.80;;;;;;;8.65;100.00;93292.97;2122067;27;20499;-87
2021/09/05 02:16:22;;;;;;;12.50;11.18;;;;;;;8.62;100.00;93291.09;2122101;27;20037;-86
2021/09/05 02:17:23;;;;;;;13.55;10.30;;;;;;;8.56;100.00;93293.44;2126186;27;20014;-86
2021/09/05 02:18:24;;;;;;;12.57;10.05;;;;;;;8.58;100.00;93293.78;2122081;27;20034;-86
2021/09/05 02:19:26;;;;;;;12.82;10.70;;;;;;;8.56;100.00;93293.44;2113459;28;20042;-87
2021/09/05 02:20:27;;;;;;;14.15;11.00;;;;;;;8.55;100.00;93293.81;2120176;28;20480;-87
2021/09/05 02:21:28;;;;;;;11.63;10.40;;;;;;;8.57;100.00;93292.28;2119672;28;20015;-88
2021/09/05 02:22:29;;;;;;;11.50;10.05;;;;;;;8.56;100.00;93288.13;2105020;28;20028;-85
2021/09/05 02:23:31;;;;;;;12.40;11.10;;;;;;;8.58;100.00;93287.72;2105110;28;20024;-87
2021/09/05 02:24:32;;;;;;;17.63;11.15;;;;;;;8.56;100.00;93290.78;2105085;28;20020;-87
2021/09/05 02:25:33;;;;;;;12.70;10.18;;;;;;;8.54;100.00;93287.75;2105245;28;20020;-88
2021/09/05 02:26:34;;;;;;;13.45;10.27;;;;;;;8.54;100.00;93287.00;2104910;28;20043;-85
2021/09/05 02:27:37;;;;;;;11.52;10.25;;;;;;;8.56;100.00;93288.13;2113402;28;20035;-87
2021/09/05 02:28:38;;;;;;;11.70;10.50;;;;;;;8.54;100.00;93292.31;2105607;28;20035;-85
2021/09/05 02:29:39;;;;;;;12.95;10.68;;;;;;;8.52;100.00;93284.00;2104918;28;20024;-86
2021/09/05 02:30:40;;;;;;;16.23;9.85;;;;;;;8.49;100.00;93287.44;2105140;28;20409;-87
2021/09/05 02:31:41;;;;;;;13.38;10.27;;;;;;;8.50;100.00;93289.69;2118349;27;20055;-85
2021/09/05 02:32:42;;;;;;;13.32;11.02;;;;;;;8.54;100.00;93285.09;2113431;28;20031;-88
2021/09/05 02:33:45;;;;;;;11.63;10.43;;;;;;;8.54;100.00;93292.31;2105008;28;20055;-87
2021/09/05 02:34:46;;;;;;;11.48;10.15;;;;;;;8.53;100.00;93288.91;2105274;28;20083;-86
2021/09/05 02:35:47;;;;;;;12.88;10.43;;;;;;;8.46;100.00;93285.56;2105124;28;20025;-88
2021/09/05 02:36:48;;;;;;;11.52;10.15;;;;;;;8.53;100.00;93288.91;2113391;27;20385;-88
2021/09/05 02:37:49;;;;;;;10.57;9.50;;;;;;;8.51;100.00;93291.19;2120558;28;20026;-86
2021/09/05 02:38:50;;;;;;;12.40;9.98;;;;;;;8.51;100.00;93296.53;2104937;28;20024;-87
2021/09/05 02:39:51;;;;;;;10.52;9.43;;;;;;;8.51;100.00;93287.78;2105052;28;20414;-89
2021/09/05 02:40:52;;;;;;;10.65;9.30;;;;;;;8.51;100.00;93277.88;2105100;28;20024;-88
2021/09/05 02:41:53;;;;;;;10.77;9.63;;;;;;;8.52;100.00;93287.41;2113390;28;20476;-88
2021/09/05 02:42:54;;;;;;;12.43;10.02;;;;;;;8.46;100.00;93283.66;2114224;27;20089;-84
2021/09/05 02:43:55;;;;;;;10.25;9.15;;;;;;;8.51;100.00;93283.19;2121815;28;20019;-86
2021/09/05 02:44:56;;;;;;;10.35;8.93;;;;;;;8.43;100.00;93279.13;2121672;27;20019;-86
2021/09/05 02:45:57;;;;;;;12.13;8.63;;;;;;;8.45;100.00;93284.81;2121862;28;20019;-88
2021/09/05 02:46:58;;;;;;;9.90;8.45;;;;;;;8.47;100.00;93290.50;2121805;27;20027;-88
2021/09/05 02:47:59;;;;;;;10.88;9.70;;;;;;;8.44;100.00;93288.63;2121530;28;20031;-86
2021/09/05 02:49:00;;;;;;;11.05;8.70;;;;;;;8.38;100.00;93294.78;2113112;28;20020;-89
2021/09/05 02:50:03;;;;;;;12.00;9.57;;;;;;;8.45;100.00;93290.13;2113311;28;20024;-85
2021/09/05 02:51:04;;;;;;;12.98;9.18;;;;;;;8.46;100.00;93285.56;2113165;28;20054;-87
2021/09/05 02:52:09;;;;;;;10.98;8.98;;;;;;;8.44;100.00;93290.53;2096457;28;20024;-86
2021/09/05 02:53:10;;;;;;;10.35;9.25;;;;;;;8.46;100.00;93283.66;2112888;28;20069;-87
2021/09/05 02:54:11;;;;;;;11.32;9.18;;;;;;;8.45;100.00;93278.72;2113318;28;20096;-86
2021/09/05 02:55:12;;;;;;;9.93;8.93;;;;;;;8.41;100.00;93289.41;2104796;28;20024;-85
2021/09/05 02:56:13;;;;;;;11.95;9.25;;;;;;;8.43;100.00;93287.13;2104831;28;20028;-84
2021/09/05 02:57:14;;;;;;;11.60;9.57;;;;;;;8.39;100.00;93278.41;2104887;28;20027;-88
2021/09/05 02:58:15;;;;;;;11.75;8.63;;;;;;;8.27;100.00;93282.31;2104635;28;20056;-89
2021/09/05 02:59:16;;;;;;;10.75;8.43;;;;;;;8.34;100.00;93284.16;2096463;28;20022;-87
2021/09/05 03:00:17;;;;;;;10.45;9.45;;;;;;;8.39;100.00;93281.06;2104670;28;20043;-85
2021/09/05 03:01:18;;;;;;;10.95;9.10;;;;;;;8.36;100.00;93284.50;2104794;28;20047;-86
2021/09/05 03:02:19;;;;;;;10.50;9.18;;;;;;;8.37;100.00;93275.38;2104808;28;20021;-85
2021/09/05 03:03:20;;;;;;;12.05;9.57;;;;;;;8.36;100.00;93281.84;2104509;28;20036;-88
2021/09/05 03:04:21;;;;;;;11.82;9.32;;;;;;;8.34;100.00;93276.16;2096423;28;20028;-85
2021/09/05 03:05:22;;;;;;;12.70;9.93;;;;;;;8.36;100.00;93281.09;2113113;28;20125;-86
2021/09/05 03:06:23;;;;;;;12.77;9.63;;;;;;;8.26;100.00;93283.47;2112707;28;20035;-88
2021/09/05 03:07:24;;;;;;;11.77;9.10;;;;;;;8.27;100.00;93289.53;2104699;28;20062;-88
2021/09/05 03:08:25;;;;;;;13.25;9.85;;;;;;;8.29;100.00;93284.56;2109235;28;20043;-86
2021/09/05 03:09:26;;;;;;;15.45;10.45;;;;;;;8.25;100.00;93287.28;2104850;28;20078;-89
2021/09/05 03:10:27;;;;;;;13.30;10.27;;;;;;;8.28;100.00;93280.41;2104779;28;20032;-85
2021/09/05 03:11:28;;;;;;;11.15;8.75;;;;;;;8.26;100.00;93282.72;2113513;27;20469;-87
2021/09/05 03:12:29;;;;;;;10.63;9.05;;;;;;;8.25;100.00;93283.84;2113034;28;20020;-84
2021/09/05 03:13:30;;;;;;;10.98;8.85;;;;;;;8.19;100.00;93283.53;2113028;28;20111;-85
2021/09/05 03:14:31;;;;;;;12.02;9.35;;;;;;;8.22;100.00;93282.75;2112987;28;20031;-88
2021/09/05 03:15:32;;;;;;;10.18;9.07;;;;;;;8.21;100.00;93283.91;2113096;28;20027;-85
2021/09/05 03:16:33;;;;;;;13.20;9.75;;;;;;;8.20;100.00;93286.94;2112969;28;20069;-86
2021/09/05 03:17:34;;;;;;;15.63;10.18;;;;;;;8.18;100.00;93286.59;2104685;28;20020;-84
2021/09/05 03:18:35;;;;;;;13.60;10.10;;;;;;;8.15;100.00;93282.06;2099220;28;20650;-86
2021/09/05 03:19:36;;;;;;;12.48;10.32;;;;;;;8.17;100.00;93279.75;2099146;28;20028;-87
2021/09/05 03:20:37;;;;;;;12.00;10.15;;;;;;;8.16;100.00;93288.88;2099792;28;20028;-88
2021/09/05 03:21:39;;;;;;;14.15;9.25;;;;;;;8.16;100.00;93288.88;2108512;28;20020;-84
2021/09/05 03:22:40;;;;;;;10.25;9.15;;;;;;;8.14;100.00;93283.22;2108878;28;20043;-85
2021/09/05 03:23:41;;;;;;;10.73;9.70;;;;;;;8.14;100.00;93280.53;2108585;28;20028;-86
2021/09/05 03:24:42;;;;;;;12.57;9.45;;;;;;;8.17;100.00;93282.44;2116658;27;20020;-86
2021/09/05 03:25:43;;;;;;;13.85;10.43;;;;;;;8.24;100.00;93282.34;2107137;28;20028;-84
2021/09/05 03:26:44;;;;;;;12.48;10.65;;;;;;;8.20;100.00;93285.03;2091065;28;20421;-84
2021/09/05 03:27:45;;;;;;;12.95;9.90;;;;;;;8.22;100.00;93284.66;2090886;28;20033;-86
2021/09/05 03:28:46;;;;;;;11.63;10.07;;;;;;;8.16;100.00;93288.88;2099036;28;20403;-84
2021/09/05 03:29:48;;;;;;;13.68;9.43;;;;;;;8.20;100.00;93292.25;2115764;28;20028;-86
2021/09/05 03:30:49;;;;;;;12.10;9.50;;;;;;;8.24;100.00;93291.06;2115757;28;20062;-85
2021/09/05 03:31:50;;;;;;;10.75;9.65;;;;;;;8.13;100.00;93287.78;2107169;28;20028;-84
2021/09/05 03:32:51;;;;;;;16.65;10.35;;;;;;;8.17;100.00;93288.50;2098987;28;20031;-84
2021/09/05 03:33:52;;;;;;;11.05;9.80;;;;;;;8.20;100.00;93289.59;2098978;28;20031;-88
2021/09/05 03:34:53;;;;;;;12.50;10.25;;;;;;;8.15;100.00;93298.03;2105840;28;20509;-86
2021/09/05 03:35:54;;;;;;;11.88;10.00;;;;;;;8.15;100.00;93290.78;2101749;28;20689;-87
2021/09/05 03:36:55;;;;;;;12.77;10.55;;;;;;;8.17;100.00;93293.06;2107324;28;20028;-86
2021/09/05 03:37:56;;;;;;;14.90;10.70;;;;;;;8.08;100.00;93283.63;2107101;28;20043;-88
2021/09/05 03:38:58;;;;;;;12.65;10.73;;;;;;;8.08;100.00;93288.97;2106977;28;20589;-88
2021/09/05 03:39:58;;;;;;;15.43;11.65;;;;;;;7.99;100.00;93282.56;2107197;28;20040;-88
2021/09/05 03:41:02;;;;;;;16.08;11.32;;;;;;;8.08;100.00;93283.63;2096885;28;20032;-86
2021/09/05 03:42:04;;;;;;;15.65;11.60;;;;;;;8.12;100.00;93288.94;2104381;27;20044;-88
2021/09/05 03:43:05;;;;;;;14.05;11.00;;;;;;;8.15;100.00;93288.13;2112632;28;20032;-87
2021/09/05 03:44:06;;;;;;;13.95;11.38;;;;;;;8.15;100.00;93282.81;2098925;28;20112;-87
2021/09/05 03:45:08;;;;;;;13.07;11.15;;;;;;;8.13;100.00;93287.78;2101928;28;20058;-85
2021/09/05 03:46:12;;;;;;;13.13;10.98;;;;;;;8.12;100.00;93282.84;2094036;28;20020;-89
2021/09/05 03:47:14;;;;;;;14.38;10.70;;;;;;;8.11;100.00;93284.75;2099585;28;20068;-86
2021/09/05 03:48:15;;;;;;;13.63;11.55;;;;;;;8.07;100.00;93284.03;2094891;28;20028;-85
2021/09/05 03:49:16;;;;;;;13.77;10.82;;;;;;;8.03;100.00;93284.06;2111158;28;20015;-86
2021/09/05 03:50:17;;;;;;;13.05;10.73;;;;;;;8.03;100.00;93289.41;2094381;28;20032;-90
2021/09/05 03:51:18;;;;;;;11.27;10.15;;;;;;;8.05;100.00;93291.66;2098677;28;20024;-85
2021/09/05 03:52:19;;;;;;;13.18;10.55;;;;;;;8.10;100.00;93287.81;2095301;28;20032;-86
2021/09/05 03:53:19;;;;;;;15.02;11.00;;;;;;;8.00;100.00;93286.75;2098690;28;20453;-86
2021/09/05 03:54:20;;;;;;;12.93;11.15;;;;;;;8.01;100.00;93289.03;2110406;28;20080;-86
2021/09/05 03:55:21;;;;;;;11.32;10.13;;;;;;;8.00;100.00;93290.19;2103695;28;20028;-85
2021/09/05 03:56:22;;;;;;;13.77;11.02;;;;;;;8.01;100.00;93280.28;2110412;28;20033;-85
2021/09/05 03:57:23;;;;;;;13.00;10.32;;;;;;;8.04;100.00;93284.81;2120801;27;20041;-87
2021/09/05 03:58:24;;;;;;;11.27;10.18;;;;;;;8.03;100.00;93288.63;2102759;28;20490;-84
2021/09/05 03:59:25;;;;;;;11.07;9.57;;;;;;;8.00;100.00;93287.53;2101202;28;20044;-86
2021/09/05 04:00:26;;;;;;;11.48;9.88;;;;;;;8.02;100.00;93292.44;2112618;28;20126;-87
2021/09/05 04:01:29;;;;;;;11.07;9.65;;;;;;;8.04;100.00;93288.25;2106961;28;20044;-87
2021/09/05 04:02:30;;;;;;;11.18;10.02;;;;;;;8.04;100.00;93292.81;2099219;28;20021;-89
2021/09/05 04:03:30;;;;;;;11.80;9.85;;;;;;;8.07;100.00;93294.66;2098624;28;20062;-85
2021/09/05 04:04:32;;;;;;;10.82;9.73;;;;;;;8.04;100.00;93293.56;2092188;28;20020;-85
2021/09/05 04:05:33;;;;;;;11.80;9.60;;;;;;;8.05;100.00;93297.72;2097273;28;20035;-86
2021/09/05 04:06:34;;;;;;;11.40;9.63;;;;;;;8.00;100.00;93300.81;2106633;28;20055;-87
2021/09/05 04:07:39;;;;;;;10.48;9.38;;;;;;;7.99;100.00;93294.00;2098566;28;20037;-87
2021/09/05 04:08:45;;;;;;;10.70;9.15;;;;;;;7.96;100.00;93288.69;2092009;28;20525;-89
2021/09/05 04:11:06;;;;;;;11.80;9.15;;;;;;;7.92;100.00;93294.06;2112752;27;20032;-85
2021/09/05 04:12:07;;;;;;;13.27;8.82;;;;;;;7.92;100.00;93291.38;2112340;28;20024;-85
2021/09/05 04:13:10;;;;;;;12.48;9.30;;;;;;;7.92;100.00;93294.06;2093318;28;20092;-87
2021/09/05 04:14:11;;;;;;;10.63;9.52;;;;;;;7.94;100.00;93293.66;2095599;28;20082;-87
2021/09/05 04:15:12;;;;;;;11.38;8.05;;;;;;;7.93;100.00;93297.47;2094083;28;20067;-86
2021/09/05 04:16:14;;;;;;;9.35;8.35;;;;;;;7.97;100.00;93298.94;2094643;28;20462;-84
2021/09/05 04:17:15;;;;;;;9.25;8.25;;;;;;;7.97;100.00;93298.19;2094751;28;20381;-87
2021/09/05 04:18:16;;;;;;;11.73;8.88;;;;;;;7.95;100.00;93297.84;2102400;28;20031;-86
2021/09/05 04:19:17;;;;;;;9.75;8.50;;;;;;;7.95;100.00;93303.91;2093489;28;20021;-84
2021/09/05 04:20:18;;;;;;;11.27;8.40;;;;;;;7.94;100.00;93299.72;2093687;28;20500;-87
2021/09/05 04:21:19;;;;;;;10.38;8.27;;;;;;;7.95;100.00;93295.19;2095003;28;20036;-87
2021/09/05 04:22:20;;;;;;;9.77;8.32;;;;;;;7.93;100.00;93300.13;2106868;28;20078;-86
2021/09/05 04:23:22;;;;;;;9.73;8.30;;;;;;;7.94;100.00;93298.97;2098306;28;20036;-85
2021/09/05 04:24:23;;;;;;;10.98;7.93;;;;;;;7.93;100.00;93298.22;2106683;28;20054;-84
2021/09/05 04:25:24;;;;;;;9.00;7.85;;;;;;;7.88;100.00;93300.56;2107090;28;20141;-85
2021/09/05 04:26:26;;;;;;;12.25;8.25;;;;;;;7.90;100.00;93304.34;2106540;28;20119;-85
2021/09/05 04:27:27;;;;;;;10.00;7.78;;;;;;;7.88;100.00;93303.22;2107067;28;20032;-87
2021/09/05 04:28:28;;;;;;;9.95;8.13;;;;;;;7.86;100.00;93298.28;2100724;28;20032;-86
2021/09/05 04:29:29;;;;;;;13.18;8.93;;;;;;;7.89;100.00;93302.06;2112689;28;20050;-86
2021/09/05 04:30:30;;;;;;;8.55;7.70;;;;;;;7.84;100.00;93311.22;2101728;28;20489;-87
2021/09/05 04:31:31;;;;;;;11.65;8.48;;;;;;;7.85;100.00;93302.09;2098448;28;20063;-86
2021/09/05 04:32:33;;;;;;;9.95;8.45;;;;;;;7.80;100.00;93305.94;2106717;28;20862;-85
2021/09/05 04:33:34;;;;;;;14.48;8.80;;;;;;;7.82;100.00;93308.97;2100029;28;20070;-87
2021/09/05 04:34:35;;;;;;;9.65;7.85;;;;;;;7.81;100.00;93307.47;2113445;28;20027;-86
2021/09/05 04:35:36;;;;;;;10.93;8.88;;;;;;;7.86;100.00;93302.84;2106769;28;20054;-87
2021/09/05 04:36:37;;;;;;;11.30;9.00;;;;;;;7.83;100.00;93304.41;2098281;28;20074;-84
2021/09/05 04:37:38;;;;;;;12.15;8.90;;;;;;;7.92;100.00;93310.03;2097017;28;20115;-88
2021/09/05 04:38:39;;;;;;;19.67;9.70;;;;;;;7.83;100.00;93304.41;2097960;28;20466;-87
2021/09/05 04:39:40;;;;;;;9.73;8.10;;;;;;;7.86;100.00;93310.81;2094100;28;20512;-86
2021/09/05 04:40:41;;;;;;;11.90;8.77;;;;;;;7.85;100.00;93307.41;2101530;28;20115;-85
2021/09/05 04:41:42;;;;;;;11.02;8.32;;;;;;;7.81;100.00;93310.13;2110687;28;20027;-87
2021/09/05 04:42:43;;;;;;;8.98;8.07;;;;;;;7.85;100.00;93310.06;2103616;28;20031;-86
2021/09/05 04:43:44;;;;;;;12.32;8.40;;;;;;;7.86;100.00;93308.16;2098279;28;20020;-88
2021/09/05 04:44:45;;;;;;;9.40;8.30;;;;;;;7.79;100.00;93319.63;2097927;28;20031;-85
2021/09/05 04:45:46;;;;;;;10.77;8.02;;;;;;;7.80;100.00;93316.56;2098498;28;20617;-87
2021/09/05 04:46:47;;;;;;;9.70;8.70;;;;;;;7.80;100.00;93318.47;2098205;28;20016;-84